createdAt,value
2022-10-18T00:01:45.610Z,55.43
2022-10-18T00:04:13.668Z,55.64
2022-10-18T00:06:43.540Z,55.69
2022-10-18T00:09:12.366Z,55.02
2022-10-18T00:11:40.630Z,55.02
2022-10-18T00:14:08.664Z,53.05
2022-10-18T00:16:36.617Z,51.43
2022-10-18T00:19:06.009Z,50.06
2022-10-18T00:21:34.088Z,49.12
2022-10-18T00:24:02.465Z,48.94
2022-10-18T00:26:31.994Z,49.36
2022-10-18T00:29:01.958Z,49.85
2022-10-18T00:31:32.231Z,48.59
2022-10-18T00:34:01.301Z,48.15
2022-10-18T00:36:32.518Z,49.80
2022-10-18T00:39:00.977Z,50.16
2022-10-18T00:41:30.493Z,50.61
2022-10-18T00:44:00.717Z,49.48
2022-10-18T00:46:30.733Z,48.51
2022-10-18T00:49:01.341Z,49.38
2022-10-18T00:51:34.570Z,49.34
2022-10-18T00:54:02.590Z,50.13
2022-10-18T00:56:30.881Z,55.53
2022-10-18T00:58:58.838Z,57.70
2022-10-18T01:01:28.459Z,59.98
2022-10-18T01:03:57.728Z,60.22
2022-10-18T01:06:28.183Z,59.89
2022-10-18T01:09:16.221Z,71.58
2022-10-18T01:12:00.296Z,68.99
2022-10-18T01:14:44.807Z,75.44
2022-10-18T01:17:16.931Z,82.06
2022-10-18T01:20:16.559Z,91.32
2022-10-18T01:22:46.247Z,87.76
2022-10-18T01:25:27.674Z,89.94
2022-10-18T01:27:59.618Z,86.91
2022-10-18T01:30:44.737Z,100.00
2022-10-18T01:33:18.551Z,100.00
2022-10-18T01:35:50.269Z,98.65
2022-10-18T01:38:20.297Z,100.00
2022-10-18T01:40:50.397Z,100.00
2022-10-18T01:43:18.717Z,100.00
2022-10-18T01:45:48.717Z,100.00
2022-10-18T01:48:17.797Z,100.00
2022-10-18T01:50:45.754Z,100.00
2022-10-18T01:53:24.538Z,100.00
2022-10-18T01:55:58.038Z,100.00
2022-10-18T01:58:30.360Z,100.00
2022-10-18T02:01:05.257Z,100.00
2022-10-18T02:03:34.623Z,100.00
2022-10-18T02:06:07.269Z,100.00
2022-10-18T02:08:38.372Z,100.00
2022-10-18T02:11:08.073Z,100.00
2022-10-18T02:13:40.292Z,100.00
2022-10-18T02:16:13.750Z,100.00
2022-10-18T02:18:46.088Z,100.00
2022-10-18T02:21:17.054Z,100.00
2022-10-18T02:23:45.787Z,100.00
2022-10-18T02:26:14.851Z,93.01
2022-10-18T02:28:42.976Z,93.47
2022-10-18T02:31:16.811Z,100.00
2022-10-18T02:33:48.307Z,100.00
2022-10-18T02:36:20.217Z,100.00
2022-10-18T02:38:48.762Z,96.55
2022-10-18T02:41:24.251Z,100.00
2022-10-18T02:43:52.128Z,100.00
2022-10-18T02:46:21.597Z,100.00
2022-10-18T02:48:50.341Z,100.00
2022-10-18T02:51:18.943Z,100.00
2022-10-18T02:53:46.944Z,100.00
2022-10-18T02:56:14.842Z,100.00
2022-10-18T02:58:42.648Z,100.00
2022-10-18T03:01:10.935Z,100.00
2022-10-18T03:03:40.571Z,100.00
2022-10-18T03:06:08.715Z,100.00
2022-10-18T03:08:37.188Z,100.00
2022-10-18T03:11:06.175Z,100.00
2022-10-18T03:13:35.046Z,100.00
2022-10-18T03:16:03.536Z,100.00
2022-10-18T03:18:31.612Z,99.44
2022-10-18T03:21:01.039Z,100.00
2022-10-18T03:23:28.959Z,100.00
2022-10-18T03:25:56.829Z,100.00
2022-10-18T03:28:25.105Z,100.00
2022-10-18T03:30:53.182Z,100.00
2022-10-18T03:33:21.264Z,100.00
2022-10-18T03:35:50.119Z,100.00
2022-10-18T03:38:20.687Z,100.00
2022-10-18T03:40:49.011Z,100.00
2022-10-18T03:43:16.966Z,100.00
2022-10-18T03:45:44.955Z,100.00
2022-10-18T03:48:13.482Z,89.71
2022-10-18T03:50:41.571Z,100.00
2022-10-18T03:53:10.109Z,92.94
2022-10-18T03:55:39.950Z,100.00
2022-10-18T03:58:08.365Z,100.00
2022-10-18T04:00:36.582Z,90.72
2022-10-18T04:03:04.735Z,94.90
2022-10-18T04:05:32.768Z,90.17
2022-10-18T04:08:00.825Z,100.00
2022-10-18T04:10:28.877Z,99.48
2022-10-18T04:12:58.601Z,88.37
2022-10-18T04:15:26.597Z,95.00
2022-10-18T04:17:54.666Z,84.31
2022-10-18T04:20:22.949Z,87.91
2022-10-18T04:22:51.666Z,78.99
2022-10-18T04:25:19.777Z,81.70
2022-10-18T04:27:47.668Z,89.29
2022-10-18T04:30:17.557Z,81.21
2022-10-18T04:32:45.589Z,83.85
2022-10-18T04:35:13.612Z,82.98
2022-10-18T04:37:43.413Z,80.55
2022-10-18T04:40:12.289Z,79.63
2022-10-18T04:42:40.737Z,76.01
2022-10-18T04:45:09.787Z,72.01
2022-10-18T04:47:39.754Z,72.24
2022-10-18T04:50:12.506Z,69.91
2022-10-18T04:52:40.744Z,71.62
2022-10-18T04:55:11.229Z,78.71
2022-10-18T04:57:39.219Z,75.68
2022-10-18T05:00:08.350Z,77.13
2022-10-18T05:02:38.543Z,73.89
2022-10-18T05:05:11.730Z,80.76
2022-10-18T05:07:42.266Z,80.14
2022-10-18T05:10:12.111Z,80.04
2022-10-18T05:12:40.250Z,88.14
2022-10-18T05:15:08.773Z,81.54
2022-10-18T05:17:37.141Z,74.66
2022-10-18T05:20:09.844Z,79.47
2022-10-18T05:22:37.856Z,77.27
2022-10-18T05:25:06.342Z,72.22
2022-10-18T05:27:34.484Z,73.39
2022-10-18T05:30:05.360Z,79.16
2022-10-18T05:32:34.203Z,70.30
2022-10-18T05:35:03.575Z,72.17
2022-10-18T05:37:33.560Z,82.60
2022-10-18T05:40:01.958Z,85.86
2022-10-18T05:42:33.014Z,83.12
2022-10-18T05:45:01.886Z,82.73
2022-10-18T05:47:29.948Z,78.90
2022-10-18T05:49:58.764Z,77.42
2022-10-18T05:52:27.002Z,76.63
2022-10-18T05:54:57.128Z,77.31
2022-10-18T05:57:25.238Z,76.62
2022-10-18T05:59:53.623Z,79.88
2022-10-18T06:02:21.748Z,78.90
2022-10-18T06:04:50.154Z,83.19
2022-10-18T06:07:18.212Z,98.35
2022-10-18T06:09:46.479Z,100.00
2022-10-18T06:12:15.888Z,100.00
2022-10-18T06:14:45.322Z,90.54
2022-10-18T06:17:13.773Z,83.51
2022-10-18T06:19:44.852Z,100.00
2022-10-18T06:22:14.757Z,100.00
2022-10-18T06:24:45.957Z,100.00
2022-10-18T06:27:15.703Z,100.00
2022-10-18T06:32:37.443Z,83.01
2022-10-18T06:35:06.222Z,75.24
2022-10-18T06:37:36.474Z,98.76
2022-10-18T06:40:05.277Z,100.00
2022-10-18T06:42:35.662Z,98.03
2022-10-18T06:45:03.707Z,97.59
2022-10-18T06:47:31.781Z,95.88
2022-10-18T06:50:00.099Z,95.23
2022-10-18T06:52:29.155Z,84.27
2022-10-18T06:54:57.660Z,100.00
2022-10-18T06:57:26.092Z,100.00
2022-10-18T06:59:56.048Z,98.23
2022-10-18T07:02:24.101Z,96.37
2022-10-18T07:04:52.442Z,80.54
2022-10-18T07:07:21.289Z,76.64
2022-10-18T07:09:51.995Z,84.32
2022-10-18T07:12:20.075Z,97.88
2022-10-18T07:14:51.078Z,85.96
2022-10-18T07:17:20.963Z,85.68
2022-10-18T07:19:54.778Z,82.65
2022-10-18T07:22:30.059Z,83.74
2022-10-18T07:24:58.931Z,100.00
2022-10-18T07:27:27.493Z,83.45
2022-10-18T07:30:01.398Z,86.10
2022-10-18T07:32:38.459Z,92.37
2022-10-18T07:35:07.717Z,93.58
2022-10-18T07:37:37.675Z,100.00
2022-10-18T07:40:12.603Z,100.00
2022-10-18T07:42:41.399Z,98.88
2022-10-18T07:45:11.963Z,93.96
2022-10-18T07:47:42.574Z,88.43
2022-10-18T07:50:11.725Z,88.83
2022-10-18T07:52:41.239Z,82.30
2022-10-18T07:55:09.902Z,84.76
2022-10-18T07:57:40.111Z,82.81
2022-10-18T08:00:09.563Z,89.11
2022-10-18T08:02:41.563Z,100.00
2022-10-18T08:05:11.230Z,82.51
2022-10-18T08:07:39.819Z,87.40
2022-10-18T08:10:08.581Z,75.38
2022-10-18T08:12:37.630Z,84.13
2022-10-18T08:15:06.701Z,82.79
2022-10-18T08:17:35.715Z,87.91
2022-10-18T08:20:12.371Z,97.62
2022-10-18T08:22:59.750Z,84.17
2022-10-18T08:25:29.360Z,78.75
2022-10-18T08:27:57.780Z,80.62
2022-10-18T08:30:26.350Z,78.21
2022-10-18T08:32:54.743Z,88.51
2022-10-18T08:35:26.297Z,89.15
2022-10-18T08:37:54.531Z,79.83
2022-10-18T08:40:24.270Z,76.60
2022-10-18T08:43:00.782Z,71.12
2022-10-18T08:45:42.094Z,73.44
2022-10-18T08:48:23.613Z,75.32
2022-10-18T08:50:55.868Z,79.35
2022-10-18T08:53:29.311Z,80.38
2022-10-18T08:56:02.885Z,80.25
2022-10-18T08:58:33.620Z,78.71
2022-10-18T09:01:12.135Z,83.63
2022-10-18T09:03:53.756Z,81.99
2022-10-18T09:06:27.086Z,100.00
2022-10-18T09:09:05.263Z,100.00
2022-10-18T09:11:45.344Z,100.00
2022-10-18T09:14:34.665Z,95.18
2022-10-18T09:17:14.994Z,97.99
2022-10-18T09:19:55.864Z,91.34
2022-10-18T09:22:31.292Z,87.80
2022-10-18T09:25:08.951Z,84.85
2022-10-18T09:27:43.069Z,81.25
2022-10-18T09:30:18.587Z,80.59
2022-10-18T09:32:49.978Z,78.71
2022-10-18T09:35:21.867Z,75.96
2022-10-18T09:37:52.829Z,85.39
2022-10-18T09:40:24.691Z,81.49
2022-10-18T09:42:58.911Z,77.24
2022-10-18T09:45:34.399Z,81.15
2022-10-18T09:48:08.658Z,91.08
2022-10-18T09:50:43.379Z,89.16
2022-10-18T09:53:23.405Z,88.25
2022-10-18T09:56:02.204Z,99.41
2022-10-18T09:58:45.034Z,88.54
2022-10-18T10:01:15.871Z,88.49
2022-10-18T10:03:44.727Z,90.02
2022-10-18T10:06:34.691Z,100.00
2022-10-18T10:09:09.264Z,94.67
2022-10-18T10:11:40.336Z,92.64
2022-10-18T10:16:49.180Z,95.99
2022-10-18T10:19:22.687Z,77.22
2022-10-18T10:21:55.082Z,100.00
2022-10-18T10:24:34.866Z,84.73
2022-10-18T10:27:11.664Z,82.19
2022-10-18T10:29:58.820Z,83.97
2022-10-18T10:32:34.634Z,79.90
2022-10-18T10:35:03.295Z,82.67
2022-10-18T10:37:36.637Z,76.96
2022-10-18T10:40:35.061Z,72.55
2022-10-18T10:43:33.055Z,84.70
2022-10-18T10:46:07.644Z,74.08
2022-10-18T10:49:04.108Z,69.62
2022-10-18T10:51:50.567Z,76.21
2022-10-18T10:54:28.724Z,78.95
2022-10-18T10:57:00.964Z,77.97
2022-10-18T10:59:34.870Z,76.22
2022-10-18T11:02:22.920Z,100.00
2022-10-18T11:04:52.278Z,100.00
2022-10-18T11:07:25.243Z,100.00
2022-10-18T11:10:01.256Z,100.00
2022-10-18T11:12:36.138Z,90.78
2022-10-18T11:15:24.718Z,86.97
2022-10-18T11:18:03.164Z,79.06
2022-10-18T11:20:36.335Z,81.33
2022-10-18T11:23:07.732Z,83.30
2022-10-18T11:25:53.488Z,84.92
2022-10-18T11:28:45.099Z,96.43
2022-10-18T11:31:17.866Z,100.00
2022-10-18T11:34:14.838Z,100.00
2022-10-18T11:37:15.866Z,100.00
2022-10-18T11:40:02.111Z,100.00
2022-10-18T11:42:40.001Z,100.00
2022-10-18T11:45:32.439Z,100.00
2022-10-18T11:48:06.664Z,100.00
2022-10-18T11:50:41.360Z,96.13
2022-10-18T11:53:15.823Z,89.37
2022-10-18T11:55:52.088Z,100.00
2022-10-18T11:58:31.190Z,98.91
2022-10-18T12:01:07.163Z,99.01
2022-10-18T12:03:41.475Z,100.00
2022-10-18T12:06:15.263Z,100.00
2022-10-18T12:08:46.028Z,95.95
2022-10-18T12:11:16.839Z,100.00
2022-10-18T12:13:49.057Z,100.00
2022-10-18T12:16:45.564Z,88.79
2022-10-18T12:19:16.484Z,99.53
2022-10-18T12:21:45.652Z,99.15
2022-10-18T12:24:22.654Z,100.00
2022-10-18T12:26:53.871Z,95.65
2022-10-18T12:29:29.325Z,100.00
2022-10-18T12:32:10.619Z,100.00
2022-10-18T12:34:57.247Z,100.00
2022-10-18T12:37:59.480Z,100.00
2022-10-18T12:40:35.455Z,100.00
2022-10-18T12:43:12.918Z,100.00
2022-10-18T12:45:50.898Z,100.00
2022-10-18T12:48:31.623Z,100.00
2022-10-18T12:51:02.983Z,100.00
2022-10-18T12:53:37.211Z,100.00
2022-10-18T12:56:42.421Z,98.36
2022-10-18T12:59:54.820Z,89.45
2022-10-18T13:02:32.772Z,100.00
2022-10-18T13:05:52.194Z,100.00
2022-10-18T13:08:48.504Z,100.00
2022-10-18T13:11:40.627Z,100.00
2022-10-18T13:14:19.413Z,100.00
2022-10-18T13:16:55.523Z,100.00
2022-10-18T13:19:32.160Z,94.11
2022-10-18T13:22:20.066Z,100.00
2022-10-18T13:25:01.744Z,100.00
2022-10-18T13:27:39.498Z,100.00
2022-10-18T13:30:37.565Z,100.00
2022-10-18T13:33:19.109Z,98.93
2022-10-18T13:36:10.416Z,100.00
2022-10-18T13:39:02.209Z,100.00
2022-10-18T13:41:35.347Z,100.00
2022-10-18T13:44:29.188Z,100.00
2022-10-18T13:47:12.521Z,100.00
2022-10-18T13:50:28.208Z,87.49
2022-10-18T13:53:10.647Z,100.00
2022-10-18T13:55:56.286Z,95.57
2022-10-18T13:58:32.138Z,95.67
2022-10-18T14:01:11.541Z,98.45
2022-10-18T14:04:14.499Z,89.63
2022-10-18T14:06:45.110Z,93.45
2022-10-18T14:09:48.668Z,100.00
2022-10-18T14:12:20.892Z,97.63
2022-10-18T14:15:04.214Z,100.00
2022-10-18T14:17:43.335Z,100.00
2022-10-18T14:20:28.651Z,94.83
2022-10-18T14:23:09.469Z,82.23
2022-10-18T14:25:42.177Z,92.43
2022-10-18T14:28:54.940Z,72.85
2022-10-18T14:31:21.208Z,84.38
2022-10-18T14:33:58.081Z,98.20
2022-10-18T14:36:52.306Z,100.00
2022-10-18T14:39:28.361Z,82.58
2022-10-18T14:41:59.603Z,73.89
2022-10-18T14:44:35.256Z,73.17
2022-10-18T14:47:28.319Z,63.76
2022-10-18T14:50:11.972Z,51.79
2022-10-18T14:52:44.422Z,51.09
2022-10-18T14:55:19.636Z,49.09
2022-10-18T14:57:49.559Z,49.83
2022-10-18T15:00:38.829Z,45.36
2022-10-18T15:03:08.879Z,44.99
2022-10-18T15:05:37.768Z,44.46
2022-10-18T15:08:12.472Z,47.01
2022-10-18T15:10:41.212Z,57.52
2022-10-18T15:13:18.246Z,86.44
2022-10-18T15:15:50.210Z,66.46
2022-10-18T15:18:22.480Z,79.66
2022-10-18T15:21:10.024Z,99.98
2022-10-18T15:23:39.208Z,81.48
2022-10-18T15:26:15.189Z,85.50
2022-10-18T15:28:52.240Z,88.97
2022-10-18T15:31:38.931Z,77.68
2022-10-18T15:34:26.557Z,81.58
2022-10-18T15:37:20.562Z,87.93
2022-10-18T15:40:33.424Z,76.39
2022-10-18T15:43:10.270Z,73.09
2022-10-18T15:45:50.944Z,92.98
2022-10-18T15:48:24.246Z,100.00
2022-10-18T15:50:53.245Z,87.36
2022-10-18T15:53:27.033Z,78.06
2022-10-18T15:55:56.177Z,71.14
2022-10-18T15:58:25.698Z,80.90
2022-10-18T16:00:54.950Z,91.80
2022-10-18T16:03:24.954Z,77.33
2022-10-18T16:05:54.665Z,78.07
2022-10-18T16:08:24.711Z,83.51
2022-10-18T16:10:52.860Z,85.21
2022-10-18T16:13:21.069Z,93.74
2022-10-18T16:15:49.528Z,83.27
2022-10-18T16:18:19.269Z,77.15
2022-10-18T16:20:49.232Z,74.34
2022-10-18T16:23:19.013Z,76.34
2022-10-18T16:25:47.234Z,79.79
2022-10-18T16:28:16.844Z,94.41
2022-10-18T16:30:47.942Z,75.61
2022-10-18T16:33:19.222Z,72.56
2022-10-18T16:35:50.838Z,68.25
2022-10-18T16:38:25.403Z,67.65
2022-10-18T16:40:53.424Z,71.68
2022-10-18T16:43:21.341Z,77.80
2022-10-18T16:45:49.420Z,68.18
2022-10-18T16:48:17.747Z,73.40
2022-10-18T16:50:47.245Z,70.13
2022-10-18T16:53:16.879Z,72.25
2022-10-18T16:55:44.886Z,79.23
2022-10-18T16:58:17.782Z,88.29
2022-10-18T17:00:46.258Z,86.12
2022-10-18T17:03:14.366Z,78.99
2022-10-18T17:05:42.507Z,80.68
2022-10-18T17:08:18.859Z,81.42
2022-10-18T17:10:47.414Z,75.43
2022-10-18T17:13:15.306Z,78.07
2022-10-18T17:15:43.169Z,76.75
2022-10-18T17:18:15.117Z,84.08
2022-10-18T17:20:43.163Z,71.31
2022-10-18T17:23:11.291Z,72.28
2022-10-18T17:25:57.416Z,73.26
2022-10-18T17:28:31.564Z,74.56
2022-10-18T17:30:59.353Z,77.24
2022-10-18T17:33:27.064Z,67.96
2022-10-18T17:35:54.786Z,69.07
2022-10-18T17:38:22.509Z,75.38
2022-10-18T17:40:52.738Z,74.00
2022-10-18T17:43:20.612Z,83.38
2022-10-18T17:45:49.217Z,95.04
2022-10-18T17:48:17.995Z,81.83
2022-10-18T17:50:45.976Z,78.66
2022-10-18T17:53:13.918Z,82.59
2022-10-18T17:55:41.649Z,81.97
2022-10-18T17:58:10.808Z,79.73
2022-10-18T18:00:38.513Z,77.60
2022-10-18T18:03:06.362Z,72.00
2022-10-18T18:05:35.474Z,72.16
2022-10-18T18:08:04.275Z,69.73
2022-10-18T18:10:33.654Z,68.97
2022-10-18T18:13:02.192Z,68.68
2022-10-18T18:15:31.217Z,68.24
2022-10-18T18:17:59.024Z,70.83
2022-10-18T18:20:27.421Z,73.93
2022-10-18T18:22:55.358Z,70.28
2022-10-18T18:25:23.094Z,65.90
2022-10-18T18:27:51.038Z,73.78
2022-10-18T18:30:18.853Z,72.70
2022-10-18T18:32:47.911Z,76.25
2022-10-18T18:35:15.788Z,76.43
2022-10-18T18:37:43.541Z,80.93
2022-10-18T18:40:11.778Z,84.78
2022-10-18T18:42:39.491Z,89.03
2022-10-18T18:45:07.970Z,92.35
2022-10-18T18:47:36.306Z,92.30
2022-10-18T18:50:05.788Z,100.00
2022-10-18T18:52:33.842Z,92.99
2022-10-18T18:55:01.740Z,100.00
2022-10-18T18:57:29.485Z,95.16
2022-10-18T18:59:57.466Z,100.00
2022-10-18T19:02:25.233Z,100.00
2022-10-18T19:04:53.027Z,100.00
2022-10-18T19:07:22.114Z,100.00
2022-10-18T19:09:50.859Z,100.00
2022-10-18T19:12:20.622Z,100.00
2022-10-18T19:14:49.187Z,98.73
2022-10-18T19:17:17.031Z,100.00
2022-10-18T19:19:44.724Z,100.00
2022-10-18T19:22:12.401Z,100.00
2022-10-18T19:24:41.516Z,100.00
2022-10-18T19:27:12.361Z,100.00
2022-10-18T19:29:41.552Z,100.00
2022-10-18T19:32:12.075Z,100.00
2022-10-18T19:34:40.417Z,100.00
2022-10-18T19:37:09.375Z,96.78
2022-10-18T19:39:37.579Z,95.16
2022-10-18T19:42:14.603Z,82.92
2022-10-18T19:44:44.783Z,84.81
2022-10-18T19:47:14.045Z,92.02
2022-10-18T19:49:42.627Z,98.07
2022-10-18T19:52:13.499Z,91.17
2022-10-18T19:54:41.237Z,82.12
2022-10-18T19:57:10.219Z,89.56
2022-10-18T19:59:38.478Z,94.98
2022-10-18T20:02:06.246Z,87.89
2022-10-18T20:04:35.024Z,98.09
2022-10-18T20:07:03.521Z,100.00
2022-10-18T20:09:31.272Z,100.00
2022-10-18T20:11:59.598Z,95.16
2022-10-18T20:14:28.671Z,74.57
2022-10-18T20:16:56.400Z,74.27
2022-10-18T20:19:24.152Z,75.04
2022-10-18T20:21:51.850Z,84.62
2022-10-18T20:24:19.519Z,84.84
2022-10-18T20:26:47.266Z,89.49
2022-10-18T20:29:15.123Z,86.94
2022-10-18T20:31:44.240Z,93.93
2022-10-18T20:34:12.968Z,84.99
2022-10-18T20:36:41.318Z,82.23
2022-10-18T20:39:09.041Z,78.42
2022-10-18T20:41:38.928Z,85.01
2022-10-18T20:44:13.946Z,83.96
2022-10-18T20:46:42.148Z,83.85
2022-10-18T20:49:14.547Z,98.92
2022-10-18T20:51:42.765Z,90.54
2022-10-18T20:54:11.388Z,94.91
2022-10-18T20:56:39.852Z,89.93
2022-10-18T20:59:09.737Z,75.11
2022-10-18T21:01:38.956Z,83.27
2022-10-18T21:04:08.119Z,74.52
2022-10-18T21:06:40.162Z,88.46
2022-10-18T21:09:09.677Z,86.82
2022-10-18T21:11:39.216Z,100.00
2022-10-18T21:14:08.117Z,83.43
2022-10-18T21:16:36.942Z,84.23
2022-10-18T21:19:05.312Z,75.20
2022-10-18T21:21:33.476Z,75.27
2022-10-18T21:24:06.887Z,69.48
2022-10-18T21:26:36.190Z,70.50
2022-10-18T21:29:05.089Z,71.25
2022-10-18T21:31:34.852Z,74.29
2022-10-18T21:34:04.022Z,73.57
2022-10-18T21:36:33.383Z,74.72
2022-10-18T21:39:03.234Z,72.11
2022-10-18T21:41:32.100Z,75.15
2022-10-18T21:44:00.078Z,66.98
2022-10-18T21:46:28.658Z,71.74
2022-10-18T21:48:57.808Z,76.44
2022-10-18T21:51:26.786Z,74.77
2022-10-18T21:53:56.161Z,71.20
2022-10-18T21:56:26.967Z,72.52
2022-10-18T21:58:55.099Z,72.20
2022-10-18T22:01:24.983Z,76.61
2022-10-18T22:03:54.403Z,74.43
2022-10-18T22:06:22.615Z,89.00
2022-10-18T22:08:51.893Z,83.94
2022-10-18T22:11:21.555Z,82.14
2022-10-18T22:13:50.827Z,100.00
2022-10-18T22:16:18.719Z,87.60
2022-10-18T22:18:47.866Z,93.40
2022-10-18T22:21:17.958Z,100.00
2022-10-18T22:23:47.439Z,100.00
2022-10-18T22:26:16.778Z,94.86
2022-10-18T22:28:45.705Z,88.17
2022-10-18T22:31:19.849Z,80.51
2022-10-18T22:33:49.164Z,87.51
2022-10-18T22:36:16.858Z,85.55
2022-10-18T22:38:44.603Z,82.90
2022-10-18T22:41:13.215Z,91.46
2022-10-18T22:43:41.307Z,93.57
2022-10-18T22:46:10.544Z,88.04
2022-10-18T22:48:40.218Z,87.43
2022-10-18T22:51:08.355Z,89.27
2022-10-18T22:53:37.111Z,94.96
2022-10-18T22:56:05.704Z,92.00
2022-10-18T22:58:33.857Z,91.34
2022-10-18T23:01:06.253Z,93.07
2022-10-18T23:03:34.115Z,85.25
2022-10-18T23:06:03.815Z,91.30
2022-10-18T23:08:31.780Z,92.44
2022-10-18T23:11:00.716Z,100.00
2022-10-18T23:13:29.073Z,94.06
2022-10-18T23:16:04.574Z,99.94
2022-10-18T23:18:32.942Z,88.74
2022-10-18T23:21:06.153Z,92.30
2022-10-18T23:23:35.566Z,100.00
2022-10-18T23:26:05.018Z,92.87
2022-10-18T23:28:34.876Z,85.03
2022-10-18T23:31:07.666Z,89.28
2022-10-18T23:33:35.665Z,91.50
2022-10-18T23:36:04.925Z,100.00
2022-10-18T23:38:33.326Z,100.00
2022-10-18T23:41:01.415Z,95.89
2022-10-18T23:43:29.190Z,88.99
2022-10-18T23:45:56.939Z,87.84
2022-10-18T23:48:24.848Z,87.23
2022-10-18T23:50:52.886Z,93.23
2022-10-18T23:53:22.355Z,98.89
2022-10-18T23:55:53.438Z,88.61
2022-10-18T23:58:21.361Z,84.64
